Detall de PIREP

Printer-friendly versionPDF version

[2015/02/22 09:25:00]
Flight IATA:CT3409
Pilot Number:012
Company ICAO:CAT
Aircraft Type:DC3/A
PAX:19
Aircraft Registration:PAX
Departing Airport: LSGG
Destination Airport: LEBL
Alternate Airport:LEPA
Online: VATSIM
Route:PAS G5 MEN A27 PPG B384 ALBER
Flight Level:F090
No Slew and time accel
No pause
Crash detect
Detect pilot in Cockpit between each 30 and 45 minutes
09:25 Zero fuel Weight: 19781 Lbs, Fuel Weight: 3525 Lbs
09:25 VATSIM:LSGG 220850Z VRB01KT 9999 FEW035 01/M00 Q1008 NOSIG
09:25 VATSIM:LEBL 220900Z 32011KT CAVOK 09/M03 Q1007 NOSIG
09:27 Parking Brakes off
09:32 Take-off
09:32 Take off Weight: 23280 Lbs
09:32 Wind: 358º @ 003 Knots Heading: 226º
09:32 POS N46º 14´ 38´´ E006º 07´ 03´´
09:32 Gear Up: 104 Knots
09:32 Flaps:1 at 104 Knots
09:33 Flaps:0 at 107 Knots
09:43 TOC
09:43 Fuel Weight: 3357 Lb
09:47 Wind:001º@027 Knots Heading: 245º Ground Speed: 177 Knots Altitude 8881 ft
10:02 Wind:358º@027 Knots Heading: 238º Ground Speed: 177 Knots Altitude 8920 ft
10:17 Wind:355º@034 Knots Heading: 240º Ground Speed: 180 Knots Altitude 8891 ft
10:32 Wind:344º@028 Knots Heading: 191º Ground Speed: 189 Knots Altitude 8907 ft
10:47 Wind:333º@028 Knots Heading: 192º Ground Speed: 187 Knots Altitude 8877 ft
11:02 Wind:321º@028 Knots Heading: 192º Ground Speed: 184 Knots Altitude 8841 ft
11:17 Wind:339º@046 Knots Heading: 198º Ground Speed: 201 Knots Altitude 8815 ft
11:20 TOD
11:20 Fuel Weight: 2253 Lb
11:32 Wind:332º@016 Knots Heading: 248º Ground Speed: 165 Knots Altitude 2890 ft
11:33 Flaps:1 at 144 Knots
11:34 Gear Down: 120 Knots
11:35 Flaps:2 at 110 Knots
11:36 Flaps:3 at 96 Knots
11:38 TouchDown:Rate -19 ft/min Speed: 73 Knots
11:38 VATSIM:LEBL 221100Z 33016KT CAVOK 12/M05 Q1007 NOSIG
11:38 Land
11:38 Wind:329º@016 Knots
11:38 Heading: 248º
11:38 Flight Duration: 02:06
11:38 Landing Weight: 21867 Lbs
11:38 POS N41º 17´ 57´´ E002º 05´ 05´´
11:43 Parking brakes on
11:43 Block to Block Duration: 02:16
11:43 Final Fuel: 2074 Lbls
11:43 Spent Fuel: 1450 Lbls
11:43 Flight Length: 372 NM
11:43 TOD Land Length: 50 NM

Exportar CSV

Powered by Drupal - Modified by Danger4k